German Olano Airport

Airport
ICAO code: 
SKPC
IATA Code: 
PCR
Summary
ICAO Region: 
CARSAM
Territory: 
Location: 
Puerto Carreno, Vichada Department
Serving: 
Puerto Carreno
Elevation: 
173 ft
Coordinates: 
Aerial View: 
6° 11' 6.604" N, 67° 29' 29.427" W
Metar
Observation
SKPC 021300Z 03006KT 9999 SCT013 SCT070 26/24 Q1013 RMK A2993
Station
Puerto Carreno / A. Guauquea
Date/Time
2021-12-02 13:00:00
Wind direction
30°
Wind speed
06 kts
Lowest cloud amount
scattered clouds
Temperature
26°C
Dew point
24°C
Humidity
88%
QNH
1013 hPa
Weather condition
n/a

Germán Olano Airport, also known as Puerto Carreno Airport, is an airport serving Puerto Carreño, the capital of Vichada Department in Colombia.

Climatology

Tropical savanna climate (Köppen climate classification Aw)

Runways

Designator Length Width Surface Rops
7/25 1800 21 ASP No/No
Airport map: 
Aerial View: 

SKYbrary Partners:

Safety knowledge contributed by: